createdAt,value
2022-11-24T00:00:27.616Z,100.00
2022-11-24T00:03:03.529Z,100.00
2022-11-24T00:05:42.459Z,100.00
2022-11-24T00:08:10.111Z,100.00
2022-11-24T00:10:42.512Z,100.00
2022-11-24T00:13:16.149Z,100.00
2022-11-24T00:15:52.520Z,100.00
2022-11-24T00:18:27.346Z,100.00
2022-11-24T00:20:58.173Z,100.00
2022-11-24T00:23:27.963Z,100.00
2022-11-24T00:26:14.032Z,100.00
2022-11-24T00:28:48.782Z,100.00
2022-11-24T00:31:42.764Z,100.00
2022-11-24T00:34:12.885Z,100.00
2022-11-24T00:36:48.524Z,100.00
2022-11-24T00:39:30.509Z,100.00
2022-11-24T00:42:10.721Z,100.00
2022-11-24T00:44:47.358Z,100.00
2022-11-24T00:47:23.943Z,100.00
2022-11-24T00:50:08.698Z,100.00
2022-11-24T00:52:47.728Z,100.00
2022-11-24T00:55:22.972Z,100.00
2022-11-24T00:57:53.835Z,100.00
2022-11-24T01:00:31.274Z,100.00
2022-11-24T01:03:17.452Z,100.00
2022-11-24T01:05:50.779Z,100.00
2022-11-24T01:08:23.821Z,100.00
2022-11-24T01:11:14.276Z,100.00
2022-11-24T01:13:54.541Z,100.00
2022-11-24T01:16:34.665Z,100.00
2022-11-24T01:19:07.785Z,100.00
2022-11-24T01:21:40.868Z,100.00
2022-11-24T01:24:12.833Z,100.00
2022-11-24T01:26:47.051Z,100.00
2022-11-24T01:29:17.802Z,100.00
2022-11-24T01:31:48.850Z,100.00
2022-11-24T01:34:26.964Z,100.00
2022-11-24T01:37:00.664Z,100.00
2022-11-24T01:39:32.148Z,100.00
2022-11-24T01:42:10.241Z,100.00
2022-11-24T01:44:48.398Z,100.00
2022-11-24T01:47:37.440Z,100.00
2022-11-24T01:53:06.369Z,100.00
2022-11-24T01:55:42.327Z,100.00
2022-11-24T01:58:22.175Z,100.00
2022-11-24T02:01:02.812Z,100.00
2022-11-24T02:03:42.649Z,100.00
2022-11-24T02:06:31.314Z,100.00
2022-11-24T02:09:39.846Z,100.00
2022-11-24T02:12:14.418Z,100.00
2022-11-24T02:14:51.198Z,100.00
2022-11-24T02:17:21.771Z,100.00
2022-11-24T02:20:01.013Z,100.00
2022-11-24T02:22:53.288Z,100.00
2022-11-24T02:25:50.512Z,100.00
2022-11-24T02:28:21.678Z,100.00
2022-11-24T02:30:54.499Z,100.00
2022-11-24T02:33:29.060Z,100.00
2022-11-24T02:36:02.416Z,100.00
2022-11-24T02:38:41.553Z,100.00
2022-11-24T02:41:21.749Z,100.00
2022-11-24T02:43:56.329Z,100.00
2022-11-24T02:46:27.367Z,100.00
2022-11-24T02:48:58.757Z,100.00
2022-11-24T02:51:29.163Z,100.00
2022-11-24T02:54:05.812Z,100.00
2022-11-24T02:56:39.382Z,100.00
2022-11-24T02:59:21.096Z,100.00
2022-11-24T03:02:07.221Z,100.00
2022-11-24T03:04:44.708Z,100.00
2022-11-24T03:07:25.716Z,100.00
2022-11-24T03:09:58.428Z,100.00
2022-11-24T03:15:20.229Z,100.00
2022-11-24T03:18:04.858Z,100.00
2022-11-24T03:20:35.474Z,100.00
2022-11-24T03:23:17.001Z,100.00
2022-11-24T03:25:54.529Z,100.00
2022-11-24T03:28:25.514Z,100.00
2022-11-24T03:30:52.665Z,100.00
2022-11-24T03:33:24.087Z,100.00
2022-11-24T03:35:57.800Z,100.00
2022-11-24T03:38:30.157Z,100.00
2022-11-24T03:40:58.217Z,100.00
2022-11-24T03:43:40.402Z,100.00
2022-11-24T03:46:17.037Z,100.00
2022-11-24T03:48:55.562Z,100.00
2022-11-24T03:51:26.307Z,100.00
2022-11-24T03:54:08.368Z,100.00
2022-11-24T03:56:39.549Z,100.00
2022-11-24T03:59:16.384Z,100.00
2022-11-24T04:01:46.797Z,100.00
2022-11-24T04:04:17.831Z,100.00
2022-11-24T04:06:54.015Z,98.09
2022-11-24T04:09:24.286Z,91.18
2022-11-24T04:11:59.558Z,90.78
2022-11-24T04:14:27.965Z,92.59
2022-11-24T04:16:58.553Z,85.86
2022-11-24T04:19:29.760Z,87.40
2022-11-24T04:21:59.840Z,88.23
2022-11-24T04:24:30.404Z,88.63
2022-11-24T04:27:05.205Z,88.90
2022-11-24T04:29:35.445Z,88.68
2022-11-24T04:32:05.772Z,87.30
2022-11-24T04:34:33.221Z,94.23
2022-11-24T04:37:07.755Z,100.00
2022-11-24T04:39:38.403Z,100.00
2022-11-24T04:42:10.458Z,100.00
2022-11-24T04:44:37.563Z,100.00
2022-11-24T04:47:07.612Z,100.00
2022-11-24T04:49:38.100Z,100.00
2022-11-24T04:52:06.688Z,100.00
2022-11-24T04:54:40.759Z,100.00
2022-11-24T04:57:15.983Z,100.00
2022-11-24T04:59:43.726Z,100.00
2022-11-24T05:02:11.820Z,100.00
2022-11-24T05:04:45.491Z,100.00
2022-11-24T05:07:18.263Z,100.00
2022-11-24T05:09:58.918Z,100.00
2022-11-24T05:12:27.931Z,100.00
2022-11-24T05:14:56.353Z,100.00
2022-11-24T05:17:23.525Z,100.00
2022-11-24T05:20:00.451Z,100.00
2022-11-24T05:22:31.319Z,100.00
2022-11-24T05:25:05.209Z,100.00
2022-11-24T05:27:35.850Z,100.00
2022-11-24T05:30:04.124Z,100.00
2022-11-24T05:32:34.549Z,100.00
2022-11-24T05:35:01.688Z,100.00
2022-11-24T05:37:29.455Z,100.00
2022-11-24T05:39:57.461Z,100.00
2022-11-24T05:42:25.194Z,100.00
2022-11-24T05:44:52.757Z,100.00
2022-11-24T05:47:21.027Z,100.00
2022-11-24T05:49:48.292Z,100.00
2022-11-24T05:52:19.243Z,100.00
2022-11-24T05:54:46.504Z,100.00
2022-11-24T05:57:19.652Z,100.00
2022-11-24T05:59:53.324Z,100.00
2022-11-24T06:02:21.282Z,100.00
2022-11-24T06:04:55.083Z,100.00
2022-11-24T06:07:28.438Z,100.00
2022-11-24T06:09:55.627Z,100.00
2022-11-24T06:12:23.424Z,100.00
2022-11-24T06:14:56.499Z,100.00
2022-11-24T06:17:30.163Z,100.00
2022-11-24T06:20:03.322Z,100.00
2022-11-24T06:22:34.417Z,100.00
2022-11-24T06:25:04.979Z,100.00
2022-11-24T06:27:35.780Z,100.00
2022-11-24T06:30:03.114Z,100.00
2022-11-24T06:32:33.676Z,100.00
2022-11-24T06:35:01.309Z,100.00
2022-11-24T06:37:31.216Z,100.00
2022-11-24T06:39:58.396Z,100.00
2022-11-24T06:42:31.366Z,100.00
2022-11-24T06:45:00.917Z,100.00
2022-11-24T06:47:31.633Z,100.00
2022-11-24T06:50:02.069Z,100.00
2022-11-24T06:52:29.344Z,100.00
2022-11-24T06:54:59.431Z,100.00
2022-11-24T06:57:27.823Z,100.00
2022-11-24T06:59:54.960Z,100.00
2022-11-24T07:02:25.455Z,100.00
2022-11-24T07:04:52.650Z,100.00
2022-11-24T07:07:19.826Z,100.00
2022-11-24T07:09:50.135Z,100.00
2022-11-24T07:12:17.364Z,100.00
2022-11-24T07:14:46.502Z,100.00
2022-11-24T07:17:16.171Z,100.00
2022-11-24T07:19:43.374Z,100.00
2022-11-24T07:22:10.512Z,100.00
2022-11-24T07:24:38.052Z,100.00
2022-11-24T07:27:09.060Z,100.00
2022-11-24T07:29:39.595Z,100.00
2022-11-24T07:32:10.016Z,100.00
2022-11-24T07:34:37.273Z,100.00
2022-11-24T07:37:04.679Z,100.00
2022-11-24T07:39:31.910Z,100.00
2022-11-24T07:41:59.767Z,100.00
2022-11-24T07:44:27.803Z,100.00
2022-11-24T07:46:55.347Z,98.79
2022-11-24T07:49:23.266Z,100.00
2022-11-24T07:51:53.043Z,97.07
2022-11-24T07:54:20.689Z,97.90
2022-11-24T07:56:50.836Z,97.59
2022-11-24T07:59:19.120Z,99.26
2022-11-24T08:01:46.617Z,97.65
2022-11-24T08:04:14.040Z,96.85
2022-11-24T08:06:47.356Z,95.84
2022-11-24T08:09:14.992Z,97.65
2022-11-24T08:11:44.735Z,93.62
2022-11-24T08:14:16.021Z,92.34
2022-11-24T08:16:43.774Z,91.68
2022-11-24T08:19:14.040Z,94.63
2022-11-24T08:21:44.649Z,91.72
2022-11-24T08:24:11.996Z,91.62
2022-11-24T08:26:39.517Z,90.95
2022-11-24T08:29:07.297Z,92.85
2022-11-24T08:31:35.404Z,92.42
2022-11-24T08:34:04.556Z,91.20
2022-11-24T08:36:32.605Z,90.20
2022-11-24T08:39:01.733Z,96.29
2022-11-24T08:41:30.037Z,91.31
2022-11-24T08:43:57.983Z,89.38
2022-11-24T08:46:25.333Z,89.60
2022-11-24T08:48:54.908Z,92.11
2022-11-24T08:51:26.744Z,91.62
2022-11-24T08:53:56.056Z,89.91
2022-11-24T08:56:25.979Z,91.35
2022-11-24T08:58:56.874Z,96.52
2022-11-24T09:01:24.947Z,89.83
2022-11-24T09:03:53.098Z,91.20
2022-11-24T09:06:24.068Z,90.57
2022-11-24T09:08:53.766Z,95.48
2022-11-24T09:11:21.320Z,90.00
2022-11-24T09:13:49.337Z,89.75
2022-11-24T09:16:25.051Z,88.13
2022-11-24T09:19:01.155Z,90.27
2022-11-24T09:21:33.322Z,87.54
2022-11-24T09:24:01.373Z,86.94
2022-11-24T09:26:33.745Z,88.30
2022-11-24T09:29:03.111Z,88.36
2022-11-24T09:31:33.104Z,86.67
2022-11-24T09:34:13.409Z,84.36
2022-11-24T09:36:46.623Z,87.33
2022-11-24T09:39:14.121Z,87.51
2022-11-24T09:41:50.311Z,84.92
2022-11-24T09:44:40.082Z,85.42
2022-11-24T09:47:18.559Z,84.92
2022-11-24T09:50:16.200Z,84.87
2022-11-24T09:52:55.246Z,84.40
2022-11-24T09:55:34.690Z,83.63
2022-11-24T09:58:26.910Z,87.74
2022-11-24T10:01:01.848Z,82.50
2022-11-24T10:03:33.960Z,81.10
2022-11-24T10:06:22.982Z,82.49
2022-11-24T10:08:57.126Z,90.25
2022-11-24T10:11:36.559Z,81.86
2022-11-24T10:14:41.232Z,82.73
2022-11-24T10:17:29.869Z,82.91
2022-11-24T10:20:13.114Z,81.04
2022-11-24T10:23:00.037Z,84.33
2022-11-24T10:25:48.503Z,82.65
2022-11-24T10:28:20.004Z,87.09
2022-11-24T10:30:47.370Z,80.23
2022-11-24T10:33:27.093Z,80.55
2022-11-24T10:36:15.051Z,79.76
2022-11-24T10:38:52.679Z,79.77
2022-11-24T10:41:36.262Z,79.65
2022-11-24T10:44:12.796Z,79.63
2022-11-24T10:46:40.417Z,79.92
2022-11-24T10:49:18.008Z,82.35
2022-11-24T10:51:57.865Z,80.48
2022-11-24T10:54:31.869Z,80.43
2022-11-24T10:57:10.806Z,81.56
2022-11-24T10:59:42.320Z,82.35
2022-11-24T11:02:28.025Z,81.58
2022-11-24T11:05:19.249Z,81.38
2022-11-24T11:08:10.730Z,81.41
2022-11-24T11:10:41.562Z,76.68
2022-11-24T11:13:24.234Z,74.50
2022-11-24T11:15:52.040Z,74.45
2022-11-24T11:18:23.288Z,73.80
2022-11-24T11:20:55.909Z,73.75
2022-11-24T11:23:27.759Z,72.39
2022-11-24T11:26:18.411Z,81.19
2022-11-24T11:35:12.135Z,72.96
2022-11-24T11:37:45.138Z,72.00
2022-11-24T11:40:27.514Z,84.95
2022-11-24T11:43:17.245Z,70.62
2022-11-24T11:45:46.658Z,65.66
2022-11-24T11:48:31.430Z,68.98
2022-11-24T11:51:25.884Z,63.72
2022-11-24T11:54:02.393Z,65.59
2022-11-24T11:56:55.067Z,67.68
2022-11-24T11:59:54.957Z,73.25
2022-11-24T12:02:48.549Z,68.85
2022-11-24T12:05:54.836Z,68.33
2022-11-24T12:08:25.787Z,68.79
2022-11-24T12:11:23.130Z,68.93
2022-11-24T12:14:05.488Z,70.58
2022-11-24T12:16:56.879Z,70.86
2022-11-24T12:19:45.285Z,76.02
2022-11-24T12:22:33.454Z,71.85
2022-11-24T12:25:07.096Z,71.83
2022-11-24T12:27:57.127Z,72.64
2022-11-24T12:30:33.509Z,79.31
2022-11-24T12:33:30.338Z,71.89
2022-11-24T12:36:06.775Z,72.58
2022-11-24T12:38:53.898Z,71.68
2022-11-24T12:41:42.608Z,72.32
2022-11-24T12:44:40.291Z,71.98
2022-11-24T12:47:44.357Z,72.42
2022-11-24T12:50:19.054Z,80.30
2022-11-24T12:52:59.178Z,74.75
2022-11-24T12:55:30.466Z,74.97
2022-11-24T12:58:11.433Z,74.95
2022-11-24T13:01:03.094Z,75.10
2022-11-24T13:03:55.368Z,75.00
2022-11-24T13:06:30.331Z,75.96
2022-11-24T13:09:11.364Z,77.46
2022-11-24T13:11:51.716Z,75.75
2022-11-24T13:14:34.562Z,77.65
2022-11-24T13:18:02.829Z,77.67
2022-11-24T13:20:37.430Z,79.26
2022-11-24T13:23:26.802Z,77.88
2022-11-24T13:26:14.560Z,78.86
2022-11-24T13:29:09.345Z,81.56
2022-11-24T13:32:12.652Z,77.97
2022-11-24T13:34:43.694Z,78.70
2022-11-24T13:37:31.608Z,77.17
2022-11-24T13:40:23.223Z,80.84
2022-11-24T13:42:56.960Z,78.36
2022-11-24T13:45:42.832Z,80.01
2022-11-24T13:48:19.508Z,79.46
2022-11-24T13:50:56.335Z,84.40
2022-11-24T13:53:46.140Z,79.93
2022-11-24T13:56:17.035Z,79.96
2022-11-24T13:59:01.710Z,80.21
2022-11-24T14:01:36.719Z,80.92
2022-11-24T14:04:33.059Z,80.88
2022-11-24T14:07:12.823Z,81.41
2022-11-24T14:09:52.523Z,86.78
2022-11-24T14:12:22.735Z,83.20
2022-11-24T14:15:16.059Z,83.21
2022-11-24T14:17:47.359Z,83.32
2022-11-24T14:20:32.488Z,84.49
2022-11-24T14:23:01.324Z,83.61
2022-11-24T14:25:38.532Z,85.49
2022-11-24T14:28:25.559Z,84.44
2022-11-24T14:31:10.548Z,86.44
2022-11-24T14:33:37.901Z,84.18
2022-11-24T14:36:18.152Z,83.66
2022-11-24T14:38:52.451Z,84.59
2022-11-24T14:41:25.950Z,86.24
2022-11-24T14:44:29.541Z,84.50
2022-11-24T14:47:17.141Z,84.76
2022-11-24T14:49:45.099Z,83.44
2022-11-24T14:52:21.661Z,84.63
2022-11-24T14:55:07.564Z,84.85
2022-11-24T14:57:51.975Z,85.46
2022-11-24T15:00:33.059Z,87.13
2022-11-24T15:03:19.330Z,85.28
2022-11-24T15:06:02.459Z,86.21
2022-11-24T15:08:47.974Z,88.26
2022-11-24T15:11:21.790Z,86.18
2022-11-24T15:13:56.941Z,86.38
2022-11-24T15:16:27.412Z,87.46
2022-11-24T15:19:01.056Z,85.19
2022-11-24T15:21:35.635Z,87.50
2022-11-24T15:24:14.432Z,86.18
2022-11-24T15:26:45.299Z,85.34
2022-11-24T15:29:13.432Z,84.92
2022-11-24T15:31:52.424Z,86.38
2022-11-24T15:34:23.701Z,78.74
2022-11-24T15:36:51.415Z,75.62
2022-11-24T15:39:18.799Z,70.64
2022-11-24T15:41:52.460Z,75.71
2022-11-24T15:44:23.375Z,70.24
2022-11-24T15:46:53.742Z,75.55
2022-11-24T15:49:22.003Z,68.74
2022-11-24T15:51:53.421Z,69.58
2022-11-24T15:54:24.872Z,76.16
2022-11-24T15:57:02.291Z,77.14
2022-11-24T15:59:30.391Z,81.41
2022-11-24T16:02:07.119Z,84.73
2022-11-24T16:04:37.862Z,81.63
2022-11-24T16:07:09.756Z,86.44
2022-11-24T16:09:41.451Z,88.36
2022-11-24T16:12:09.220Z,86.39
2022-11-24T16:14:40.143Z,87.18
2022-11-24T16:17:11.167Z,78.98
2022-11-24T16:19:43.307Z,82.14
2022-11-24T16:22:11.046Z,82.06
2022-11-24T16:24:38.341Z,80.67
2022-11-24T16:27:16.748Z,79.43
2022-11-24T16:29:49.926Z,75.78
2022-11-24T16:32:24.859Z,80.82
2022-11-24T16:34:55.635Z,91.43
2022-11-24T16:37:23.737Z,81.97
2022-11-24T16:39:56.867Z,85.30
2022-11-24T16:42:31.434Z,88.99
2022-11-24T16:45:02.574Z,85.33
2022-11-24T16:47:38.303Z,99.19
2022-11-24T16:50:10.323Z,88.49
2022-11-24T16:52:41.527Z,94.38
2022-11-24T16:55:12.660Z,90.70
2022-11-24T16:57:43.511Z,76.87
2022-11-24T17:00:20.077Z,84.47
2022-11-24T17:02:53.125Z,86.57
2022-11-24T17:05:23.426Z,89.64
2022-11-24T17:07:56.459Z,86.65
2022-11-24T17:10:23.921Z,94.36
2022-11-24T17:12:57.478Z,78.60
2022-11-24T17:15:34.431Z,87.64
2022-11-24T17:18:23.505Z,84.22
2022-11-24T17:20:52.589Z,84.81
2022-11-24T17:23:23.611Z,89.39
2022-11-24T17:25:53.865Z,92.66
2022-11-24T17:28:27.508Z,82.89
2022-11-24T17:30:54.980Z,93.21
2022-11-24T17:33:22.701Z,82.84
2022-11-24T17:35:52.498Z,73.28
2022-11-24T17:38:28.333Z,73.34
2022-11-24T17:40:59.023Z,72.28
2022-11-24T17:43:30.307Z,78.09
2022-11-24T17:46:05.604Z,78.08
2022-11-24T17:48:36.723Z,79.98
2022-11-24T17:51:15.506Z,85.78
2022-11-24T17:53:47.915Z,83.01
2022-11-24T17:56:21.313Z,83.89
2022-11-24T17:58:58.012Z,83.61
2022-11-24T18:01:26.473Z,85.10
2022-11-24T18:04:00.615Z,85.33
2022-11-24T18:06:47.311Z,86.81
2022-11-24T18:09:17.923Z,86.31
2022-11-24T18:11:51.351Z,85.16
2022-11-24T18:14:33.548Z,85.62
2022-11-24T18:17:10.115Z,86.59
2022-11-24T18:19:45.585Z,87.00
2022-11-24T18:22:42.899Z,89.43
2022-11-24T18:25:15.144Z,86.29
2022-11-24T18:27:49.213Z,86.62
2022-11-24T18:30:22.868Z,86.49
2022-11-24T18:32:53.892Z,90.61
2022-11-24T18:35:24.906Z,85.89
2022-11-24T18:38:09.831Z,88.69
2022-11-24T18:40:43.643Z,87.10
2022-11-24T18:43:16.524Z,88.53
2022-11-24T18:45:49.680Z,86.77
2022-11-24T18:48:28.099Z,85.64
2022-11-24T18:51:06.141Z,84.69
2022-11-24T18:53:40.628Z,87.52
2022-11-24T18:56:14.258Z,84.47
2022-11-24T18:58:47.664Z,86.20
2022-11-24T19:01:22.572Z,91.73
2022-11-24T19:03:58.360Z,86.95
2022-11-24T19:06:38.798Z,87.00
2022-11-24T19:09:18.000Z,86.48
2022-11-24T19:11:51.639Z,87.10
2022-11-24T19:14:28.112Z,85.81
2022-11-24T19:16:55.517Z,85.21
2022-11-24T19:19:29.380Z,85.68
2022-11-24T19:22:04.897Z,89.16
2022-11-24T19:24:41.789Z,87.69
2022-11-24T19:27:13.512Z,85.88
2022-11-24T19:29:47.645Z,85.51
2022-11-24T19:32:24.607Z,87.67
2022-11-24T19:34:54.774Z,85.63
2022-11-24T19:37:35.562Z,85.47
2022-11-24T19:40:10.036Z,84.56
2022-11-24T19:42:43.939Z,87.07
2022-11-24T19:45:19.886Z,86.04
2022-11-24T19:47:59.101Z,86.61
2022-11-24T19:50:40.478Z,85.50
2022-11-24T19:53:21.541Z,88.06
2022-11-24T19:55:55.791Z,84.88
2022-11-24T19:58:27.123Z,85.69
2022-11-24T20:01:10.699Z,85.52
2022-11-24T20:03:48.450Z,88.34
2022-11-24T20:06:22.003Z,84.43
2022-11-24T20:08:53.293Z,84.95
2022-11-24T20:11:23.529Z,85.45
2022-11-24T20:13:54.040Z,86.00
2022-11-24T20:16:27.760Z,86.45
2022-11-24T20:19:06.356Z,83.88
2022-11-24T20:21:43.756Z,84.87
2022-11-24T20:24:29.181Z,84.28
2022-11-24T20:27:01.425Z,85.15
2022-11-24T20:29:34.910Z,84.19
2022-11-24T20:32:11.624Z,86.01
2022-11-24T20:34:48.946Z,85.58
2022-11-24T20:37:20.870Z,85.33
2022-11-24T20:39:53.888Z,84.67
2022-11-24T20:42:29.881Z,84.39
2022-11-24T20:45:01.174Z,84.43
2022-11-24T20:47:40.153Z,83.40
2022-11-24T20:50:14.097Z,82.84
2022-11-24T20:52:50.662Z,84.11
2022-11-24T20:55:24.349Z,83.02
2022-11-24T20:57:55.085Z,82.30
2022-11-24T21:00:26.261Z,83.05
2022-11-24T21:03:02.753Z,84.96
2022-11-24T21:05:33.829Z,82.63
2022-11-24T21:08:09.926Z,83.05
2022-11-24T21:10:40.897Z,83.57
2022-11-24T21:13:11.869Z,82.05
2022-11-24T21:15:51.643Z,82.41
2022-11-24T21:18:37.745Z,82.80
2022-11-24T21:21:11.472Z,82.10
2022-11-24T21:23:51.531Z,83.54
2022-11-24T21:26:26.624Z,82.57
2022-11-24T21:29:11.617Z,83.09
2022-11-24T21:31:51.722Z,84.98
2022-11-24T21:34:24.760Z,85.78
2022-11-24T21:36:56.211Z,83.49
2022-11-24T21:39:26.074Z,83.26
2022-11-24T21:42:03.144Z,83.97
2022-11-24T21:44:34.306Z,83.83
2022-11-24T21:47:07.557Z,83.71
2022-11-24T21:49:38.989Z,83.72
2022-11-24T21:52:06.177Z,84.12
2022-11-24T21:54:45.811Z,84.55
2022-11-24T21:57:13.258Z,83.25
2022-11-24T21:59:46.796Z,83.54
2022-11-24T22:02:17.092Z,82.78
2022-11-24T22:04:51.277Z,83.87
2022-11-24T22:07:25.264Z,83.79
2022-11-24T22:09:56.357Z,85.57
2022-11-24T22:12:24.206Z,85.62
2022-11-24T22:15:01.225Z,84.73
2022-11-24T22:17:32.007Z,85.04
2022-11-24T22:19:59.298Z,85.44
2022-11-24T22:22:34.140Z,86.45
2022-11-24T22:25:12.959Z,86.89
2022-11-24T22:27:40.267Z,84.93
2022-11-24T22:30:14.179Z,86.47
2022-11-24T22:32:45.212Z,86.65
2022-11-24T22:35:16.013Z,86.32
2022-11-24T22:37:46.134Z,85.59
2022-11-24T22:40:16.396Z,85.79
2022-11-24T22:42:46.635Z,89.28
2022-11-24T22:45:19.855Z,85.57
2022-11-24T22:47:54.288Z,85.85
2022-11-24T22:50:22.038Z,86.35
2022-11-24T22:52:53.303Z,89.01
2022-11-24T22:55:23.427Z,86.14
2022-11-24T22:57:56.838Z,86.22
2022-11-24T23:00:28.095Z,86.21
2022-11-24T23:02:59.676Z,89.09
2022-11-24T23:05:37.964Z,86.83
2022-11-24T23:08:14.537Z,86.04
2022-11-24T23:10:45.597Z,85.68
2022-11-24T23:13:21.784Z,88.52
2022-11-24T23:15:59.127Z,86.40
2022-11-24T23:18:30.266Z,86.24
2022-11-24T23:21:08.392Z,85.86
2022-11-24T23:23:39.010Z,91.85
2022-11-24T23:26:19.598Z,86.28
2022-11-24T23:28:50.573Z,86.98
2022-11-24T23:31:26.699Z,87.50
2022-11-24T23:33:58.230Z,89.63
2022-11-24T23:36:30.185Z,88.22
2022-11-24T23:39:05.620Z,87.99
2022-11-24T23:41:36.861Z,88.18
2022-11-24T23:44:10.413Z,90.12
2022-11-24T23:46:46.020Z,88.00
2022-11-24T23:49:13.353Z,87.71
2022-11-24T23:51:47.281Z,87.80
2022-11-24T23:54:17.912Z,89.39
2022-11-24T23:56:52.236Z,88.26
2022-11-24T23:59:20.112Z,88.65
